sensor_id;sensor_type;location;lat;lon;timestamp;P1;durP1;ratioP1;P2;durP2;ratioP2
52614;SDS011;38508;53.158;6.614;2023-04-03T00:00:55;2.95;;;0.60;;
52614;SDS011;38508;53.158;6.614;2023-04-03T00:03:21;3.42;;;0.70;;
52614;SDS011;38508;53.158;6.614;2023-04-03T00:05:47;2.70;;;0.45;;
52614;SDS011;38508;53.158;6.614;2023-04-03T00:08:12;3.10;;;0.52;;
52614;SDS011;38508;53.158;6.614;2023-04-03T00:10:38;3.80;;;0.52;;
52614;SDS011;38508;53.158;6.614;2023-04-03T00:13:04;4.47;;;0.63;;
52614;SDS011;38508;53.158;6.614;2023-04-03T00:15:31;2.67;;;0.43;;
52614;SDS011;38508;53.158;6.614;2023-04-03T00:17:56;2.70;;;0.75;;
52614;SDS011;38508;53.158;6.614;2023-04-03T00:20:22;6.22;;;0.65;;
52614;SDS011;38508;53.158;6.614;2023-04-03T00:22:48;2.28;;;0.60;;
52614;SDS011;38508;53.158;6.614;2023-04-03T00:25:13;2.63;;;0.50;;
52614;SDS011;38508;53.158;6.614;2023-04-03T00:27:39;2.35;;;0.50;;
52614;SDS011;38508;53.158;6.614;2023-04-03T00:30:06;8.43;;;0.80;;
52614;SDS011;38508;53.158;6.614;2023-04-03T00:32:33;2.80;;;0.45;;
52614;SDS011;38508;53.158;6.614;2023-04-03T00:34:59;2.85;;;0.63;;
52614;SDS011;38508;53.158;6.614;2023-04-03T00:37:25;3.78;;;0.60;;
52614;SDS011;38508;53.158;6.614;2023-04-03T00:39:50;1.40;;;0.50;;
52614;SDS011;38508;53.158;6.614;2023-04-03T00:42:16;3.40;;;0.40;;
52614;SDS011;38508;53.158;6.614;2023-04-03T00:47:12;3.58;;;0.70;;
52614;SDS011;38508;53.158;6.614;2023-04-03T00:49:40;2.92;;;0.73;;
52614;SDS011;38508;53.158;6.614;2023-04-03T00:52:08;1.10;;;0.40;;
52614;SDS011;38508;53.158;6.614;2023-04-03T00:54:39;2.50;;;0.60;;
52614;SDS011;38508;53.158;6.614;2023-04-03T00:57:06;2.97;;;0.68;;
52614;SDS011;38508;53.158;6.614;2023-04-03T00:59:34;5.03;;;0.60;;
52614;SDS011;38508;53.158;6.614;2023-04-03T01:02:05;1.80;;;0.95;;
52614;SDS011;38508;53.158;6.614;2023-04-03T01:04:35;4.65;;;0.75;;
52614;SDS011;38508;53.158;6.614;2023-04-03T01:07:04;4.13;;;0.65;;
52614;SDS011;38508;53.158;6.614;2023-04-03T01:09:53;2.28;;;0.70;;
52614;SDS011;38508;53.158;6.614;2023-04-03T01:12:23;3.53;;;0.70;;
52614;SDS011;38508;53.158;6.614;2023-04-03T01:14:52;2.40;;;0.50;;
52614;SDS011;38508;53.158;6.614;2023-04-03T01:17:31;2.55;;;0.50;;
52614;SDS011;38508;53.158;6.614;2023-04-03T01:25:41;3.28;;;0.50;;
52614;SDS011;38508;53.158;6.614;2023-04-03T01:28:11;6.18;;;1.00;;
52614;SDS011;38508;53.158;6.614;2023-04-03T01:33:30;2.65;;;0.50;;
52614;SDS011;38508;53.158;6.614;2023-04-03T01:35:56;4.65;;;0.80;;
52614;SDS011;38508;53.158;6.614;2023-04-03T01:38:22;5.47;;;0.75;;
52614;SDS011;38508;53.158;6.614;2023-04-03T01:40:48;4.88;;;1.52;;
52614;SDS011;38508;53.158;6.614;2023-04-03T01:43:14;2.13;;;0.50;;
52614;SDS011;38508;53.158;6.614;2023-04-03T01:45:39;4.68;;;0.70;;
52614;SDS011;38508;53.158;6.614;2023-04-03T01:48:05;4.28;;;0.70;;
52614;SDS011;38508;53.158;6.614;2023-04-03T01:50:31;4.30;;;0.68;;
52614;SDS011;38508;53.158;6.614;2023-04-03T01:52:57;2.08;;;0.60;;
52614;SDS011;38508;53.158;6.614;2023-04-03T01:55:22;3.05;;;0.70;;
52614;SDS011;38508;53.158;6.614;2023-04-03T01:57:48;3.88;;;1.00;;
52614;SDS011;38508;53.158;6.614;2023-04-03T02:00:14;2.55;;;0.50;;
52614;SDS011;38508;53.158;6.614;2023-04-03T02:02:40;3.58;;;0.63;;
52614;SDS011;38508;53.158;6.614;2023-04-03T02:05:05;4.40;;;0.80;;
52614;SDS011;38508;53.158;6.614;2023-04-03T02:07:31;6.90;;;0.88;;
52614;SDS011;38508;53.158;6.614;2023-04-03T02:09:57;2.15;;;0.73;;
52614;SDS011;38508;53.158;6.614;2023-04-03T02:12:22;2.67;;;0.77;;
52614;SDS011;38508;53.158;6.614;2023-04-03T02:14:48;7.97;;;1.13;;
52614;SDS011;38508;53.158;6.614;2023-04-03T02:17:14;2.92;;;0.73;;
52614;SDS011;38508;53.158;6.614;2023-04-03T02:19:40;3.38;;;0.77;;
52614;SDS011;38508;53.158;6.614;2023-04-03T02:22:05;5.82;;;0.90;;
52614;SDS011;38508;53.158;6.614;2023-04-03T02:24:31;8.90;;;1.10;;
52614;SDS011;38508;53.158;6.614;2023-04-03T02:26:57;8.27;;;1.23;;
52614;SDS011;38508;53.158;6.614;2023-04-03T02:29:23;4.90;;;0.90;;
52614;SDS011;38508;53.158;6.614;2023-04-03T02:31:49;2.58;;;0.95;;
52614;SDS011;38508;53.158;6.614;2023-04-03T02:34:15;3.50;;;0.77;;
52614;SDS011;38508;53.158;6.614;2023-04-03T02:36:41;4.57;;;0.80;;
52614;SDS011;38508;53.158;6.614;2023-04-03T02:39:07;6.13;;;0.93;;
52614;SDS011;38508;53.158;6.614;2023-04-03T02:41:33;4.68;;;0.93;;
52614;SDS011;38508;53.158;6.614;2023-04-03T02:44:04;5.40;;;1.02;;
52614;SDS011;38508;53.158;6.614;2023-04-03T02:46:30;2.03;;;0.70;;
52614;SDS011;38508;53.158;6.614;2023-04-03T02:48:57;1.70;;;0.60;;
52614;SDS011;38508;53.158;6.614;2023-04-03T02:51:22;2.00;;;0.75;;
52614;SDS011;38508;53.158;6.614;2023-04-03T02:53:48;4.63;;;1.25;;
52614;SDS011;38508;53.158;6.614;2023-04-03T02:56:15;3.53;;;1.00;;
52614;SDS011;38508;53.158;6.614;2023-04-03T02:58:42;6.80;;;0.82;;
52614;SDS011;38508;53.158;6.614;2023-04-03T03:01:08;6.05;;;1.10;;
52614;SDS011;38508;53.158;6.614;2023-04-03T03:03:34;5.25;;;0.85;;
52614;SDS011;38508;53.158;6.614;2023-04-03T03:08:35;6.72;;;0.90;;
52614;SDS011;38508;53.158;6.614;2023-04-03T03:11:02;2.20;;;0.90;;
52614;SDS011;38508;53.158;6.614;2023-04-03T03:13:28;4.68;;;1.15;;
52614;SDS011;38508;53.158;6.614;2023-04-03T03:15:54;3.88;;;0.90;;
52614;SDS011;38508;53.158;6.614;2023-04-03T03:18:20;6.63;;;1.20;;
52614;SDS011;38508;53.158;6.614;2023-04-03T03:20:46;7.18;;;1.20;;
52614;SDS011;38508;53.158;6.614;2023-04-03T03:23:11;4.53;;;0.80;;
52614;SDS011;38508;53.158;6.614;2023-04-03T03:25:38;6.47;;;1.15;;
52614;SDS011;38508;53.158;6.614;2023-04-03T03:28:05;3.90;;;1.10;;
52614;SDS011;38508;53.158;6.614;2023-04-03T03:30:31;5.53;;;1.70;;
52614;SDS011;38508;53.158;6.614;2023-04-03T03:32:57;7.20;;;1.50;;
52614;SDS011;38508;53.158;6.614;2023-04-03T03:35:22;4.55;;;1.00;;
52614;SDS011;38508;53.158;6.614;2023-04-03T03:37:48;6.82;;;1.27;;
52614;SDS011;38508;53.158;6.614;2023-04-03T03:40:14;7.03;;;1.45;;
52614;SDS011;38508;53.158;6.614;2023-04-03T03:42:39;5.38;;;1.33;;
52614;SDS011;38508;53.158;6.614;2023-04-03T03:45:05;3.88;;;1.60;;
52614;SDS011;38508;53.158;6.614;2023-04-03T03:47:32;8.82;;;1.75;;
52614;SDS011;38508;53.158;6.614;2023-04-03T03:49:57;3.60;;;1.10;;
52614;SDS011;38508;53.158;6.614;2023-04-03T03:52:23;4.10;;;1.15;;
52614;SDS011;38508;53.158;6.614;2023-04-03T03:54:48;6.60;;;1.38;;
52614;SDS011;38508;53.158;6.614;2023-04-03T03:57:14;7.97;;;1.10;;
52614;SDS011;38508;53.158;6.614;2023-04-03T03:59:40;4.82;;;1.33;;
52614;SDS011;38508;53.158;6.614;2023-04-03T04:02:07;5.40;;;1.30;;
52614;SDS011;38508;53.158;6.614;2023-04-03T04:04:32;5.30;;;1.60;;
52614;SDS011;38508;53.158;6.614;2023-04-03T04:06:58;8.10;;;1.52;;
52614;SDS011;38508;53.158;6.614;2023-04-03T04:09:25;5.60;;;1.50;;
52614;SDS011;38508;53.158;6.614;2023-04-03T04:11:51;6.78;;;1.83;;
52614;SDS011;38508;53.158;6.614;2023-04-03T04:14:17;6.13;;;1.88;;
52614;SDS011;38508;53.158;6.614;2023-04-03T04:16:45;6.25;;;1.80;;
52614;SDS011;38508;53.158;6.614;2023-04-03T04:19:11;7.28;;;1.92;;
52614;SDS011;38508;53.158;6.614;2023-04-03T04:21:38;5.22;;;1.60;;
52614;SDS011;38508;53.158;6.614;2023-04-03T04:24:04;6.90;;;1.65;;
52614;SDS011;38508;53.158;6.614;2023-04-03T04:26:31;5.45;;;1.30;;
52614;SDS011;38508;53.158;6.614;2023-04-03T04:28:56;7.75;;;1.60;;
52614;SDS011;38508;53.158;6.614;2023-04-03T04:31:22;4.65;;;1.52;;
52614;SDS011;38508;53.158;6.614;2023-04-03T04:33:48;5.53;;;1.30;;
52614;SDS011;38508;53.158;6.614;2023-04-03T04:36:13;3.28;;;1.40;;
52614;SDS011;38508;53.158;6.614;2023-04-03T04:38:40;9.90;;;1.38;;
52614;SDS011;38508;53.158;6.614;2023-04-03T04:41:06;3.25;;;1.35;;
52614;SDS011;38508;53.158;6.614;2023-04-03T04:43:31;4.75;;;1.58;;
52614;SDS011;38508;53.158;6.614;2023-04-03T04:46:07;9.18;;;1.90;;
52614;SDS011;38508;53.158;6.614;2023-04-03T04:48:35;7.22;;;1.73;;
52614;SDS011;38508;53.158;6.614;2023-04-03T04:51:01;6.50;;;1.95;;
52614;SDS011;38508;53.158;6.614;2023-04-03T04:53:27;4.88;;;1.58;;
52614;SDS011;38508;53.158;6.614;2023-04-03T04:55:53;6.57;;;2.40;;
52614;SDS011;38508;53.158;6.614;2023-04-03T04:58:19;8.00;;;1.48;;
52614;SDS011;38508;53.158;6.614;2023-04-03T05:00:45;5.20;;;1.75;;
52614;SDS011;38508;53.158;6.614;2023-04-03T05:03:10;10.20;;;2.13;;
52614;SDS011;38508;53.158;6.614;2023-04-03T05:05:36;6.57;;;1.88;;
52614;SDS011;38508;53.158;6.614;2023-04-03T05:08:03;8.45;;;1.83;;
52614;SDS011;38508;53.158;6.614;2023-04-03T05:10:29;8.48;;;1.70;;
52614;SDS011;38508;53.158;6.614;2023-04-03T05:12:56;7.97;;;1.85;;
52614;SDS011;38508;53.158;6.614;2023-04-03T05:15:22;6.55;;;2.28;;
52614;SDS011;38508;53.158;6.614;2023-04-03T05:17:48;6.32;;;1.80;;
52614;SDS011;38508;53.158;6.614;2023-04-03T05:20:14;6.78;;;1.95;;
52614;SDS011;38508;53.158;6.614;2023-04-03T05:22:40;9.32;;;2.13;;
52614;SDS011;38508;53.158;6.614;2023-04-03T05:25:05;9.25;;;2.28;;
52614;SDS011;38508;53.158;6.614;2023-04-03T05:27:32;11.35;;;2.00;;
52614;SDS011;38508;53.158;6.614;2023-04-03T05:29:57;7.20;;;2.65;;
52614;SDS011;38508;53.158;6.614;2023-04-03T05:32:24;10.40;;;2.58;;
52614;SDS011;38508;53.158;6.614;2023-04-03T05:34:51;7.07;;;2.28;;
52614;SDS011;38508;53.158;6.614;2023-04-03T05:37:17;8.65;;;2.38;;
52614;SDS011;38508;53.158;6.614;2023-04-03T05:39:43;6.00;;;2.10;;
52614;SDS011;38508;53.158;6.614;2023-04-03T05:42:09;18.27;;;2.75;;
52614;SDS011;38508;53.158;6.614;2023-04-03T05:44:36;9.57;;;2.38;;
52614;SDS011;38508;53.158;6.614;2023-04-03T05:47:02;9.85;;;2.80;;
52614;SDS011;38508;53.158;6.614;2023-04-03T05:49:28;7.95;;;2.60;;
52614;SDS011;38508;53.158;6.614;2023-04-03T05:51:54;6.47;;;2.33;;
52614;SDS011;38508;53.158;6.614;2023-04-03T05:54:21;13.57;;;2.42;;
52614;SDS011;38508;53.158;6.614;2023-04-03T05:56:52;8.15;;;1.92;;
52614;SDS011;38508;53.158;6.614;2023-04-03T05:59:19;6.88;;;2.10;;
52614;SDS011;38508;53.158;6.614;2023-04-03T06:01:45;9.23;;;2.40;;
52614;SDS011;38508;53.158;6.614;2023-04-03T06:04:12;13.77;;;2.50;;
52614;SDS011;38508;53.158;6.614;2023-04-03T06:06:52;16.10;;;2.60;;
52614;SDS011;38508;53.158;6.614;2023-04-03T06:09:19;11.02;;;2.83;;
52614;SDS011;38508;53.158;6.614;2023-04-03T06:11:46;8.18;;;2.53;;
52614;SDS011;38508;53.158;6.614;2023-04-03T06:14:12;11.85;;;2.95;;
52614;SDS011;38508;53.158;6.614;2023-04-03T06:16:38;12.50;;;2.45;;
52614;SDS011;38508;53.158;6.614;2023-04-03T06:19:04;9.30;;;2.33;;
52614;SDS011;38508;53.158;6.614;2023-04-03T06:21:32;10.23;;;2.45;;
52614;SDS011;38508;53.158;6.614;2023-04-03T06:23:58;8.82;;;2.05;;
52614;SDS011;38508;53.158;6.614;2023-04-03T06:26:23;7.45;;;2.35;;
52614;SDS011;38508;53.158;6.614;2023-04-03T06:28:49;11.98;;;2.47;;
52614;SDS011;38508;53.158;6.614;2023-04-03T06:31:15;9.23;;;2.53;;
52614;SDS011;38508;53.158;6.614;2023-04-03T06:33:42;6.05;;;1.98;;
52614;SDS011;38508;53.158;6.614;2023-04-03T06:36:07;8.35;;;1.92;;
52614;SDS011;38508;53.158;6.614;2023-04-03T06:38:35;9.98;;;2.28;;
52614;SDS011;38508;53.158;6.614;2023-04-03T06:41:01;9.52;;;2.25;;
52614;SDS011;38508;53.158;6.614;2023-04-03T06:43:26;10.38;;;2.05;;
52614;SDS011;38508;53.158;6.614;2023-04-03T06:45:52;7.40;;;2.55;;
52614;SDS011;38508;53.158;6.614;2023-04-03T06:48:18;9.90;;;2.70;;
52614;SDS011;38508;53.158;6.614;2023-04-03T06:50:44;7.38;;;1.92;;
52614;SDS011;38508;53.158;6.614;2023-04-03T06:53:09;8.63;;;2.90;;
52614;SDS011;38508;53.158;6.614;2023-04-03T06:55:35;7.72;;;2.50;;
52614;SDS011;38508;53.158;6.614;2023-04-03T06:58:02;9.23;;;2.47;;
52614;SDS011;38508;53.158;6.614;2023-04-03T07:00:28;8.98;;;2.85;;
52614;SDS011;38508;53.158;6.614;2023-04-03T07:02:55;11.05;;;2.53;;
52614;SDS011;38508;53.158;6.614;2023-04-03T07:05:22;7.10;;;2.38;;
52614;SDS011;38508;53.158;6.614;2023-04-03T07:07:49;6.50;;;1.98;;
52614;SDS011;38508;53.158;6.614;2023-04-03T07:10:16;7.00;;;2.25;;
52614;SDS011;38508;53.158;6.614;2023-04-03T07:12:42;8.02;;;2.15;;
52614;SDS011;38508;53.158;6.614;2023-04-03T07:15:08;6.78;;;1.77;;
52614;SDS011;38508;53.158;6.614;2023-04-03T07:17:34;6.18;;;2.03;;
52614;SDS011;38508;53.158;6.614;2023-04-03T07:20:02;10.73;;;2.28;;
52614;SDS011;38508;53.158;6.614;2023-04-03T07:22:29;6.15;;;1.83;;
52614;SDS011;38508;53.158;6.614;2023-04-03T07:24:54;6.57;;;1.52;;
52614;SDS011;38508;53.158;6.614;2023-04-03T07:27:20;4.55;;;1.40;;
52614;SDS011;38508;53.158;6.614;2023-04-03T07:29:46;5.03;;;1.77;;
52614;SDS011;38508;53.158;6.614;2023-04-03T07:32:13;5.90;;;1.40;;
52614;SDS011;38508;53.158;6.614;2023-04-03T07:34:39;7.13;;;1.80;;
52614;SDS011;38508;53.158;6.614;2023-04-03T07:37:05;6.22;;;1.33;;
52614;SDS011;38508;53.158;6.614;2023-04-03T07:39:32;5.35;;;1.42;;
52614;SDS011;38508;53.158;6.614;2023-04-03T07:41:58;5.18;;;1.67;;
52614;SDS011;38508;53.158;6.614;2023-04-03T07:44:24;6.72;;;1.52;;
52614;SDS011;38508;53.158;6.614;2023-04-03T07:46:50;5.03;;;1.65;;
52614;SDS011;38508;53.158;6.614;2023-04-03T07:49:16;7.53;;;1.52;;
52614;SDS011;38508;53.158;6.614;2023-04-03T07:51:43;9.15;;;1.70;;
52614;SDS011;38508;53.158;6.614;2023-04-03T07:54:09;6.40;;;1.40;;
52614;SDS011;38508;53.158;6.614;2023-04-03T07:56:35;8.05;;;1.30;;
52614;SDS011;38508;53.158;6.614;2023-04-03T07:59:01;6.40;;;1.55;;
52614;SDS011;38508;53.158;6.614;2023-04-03T08:01:27;7.68;;;1.60;;
52614;SDS011;38508;53.158;6.614;2023-04-03T08:03:53;7.30;;;1.52;;
52614;SDS011;38508;53.158;6.614;2023-04-03T08:06:19;11.32;;;1.50;;
52614;SDS011;38508;53.158;6.614;2023-04-03T08:08:45;6.32;;;1.10;;
52614;SDS011;38508;53.158;6.614;2023-04-03T08:11:13;6.68;;;1.67;;
52614;SDS011;38508;53.158;6.614;2023-04-03T08:13:39;5.85;;;1.25;;
52614;SDS011;38508;53.158;6.614;2023-04-03T08:16:07;3.42;;;1.17;;
52614;SDS011;38508;53.158;6.614;2023-04-03T08:18:34;6.63;;;1.50;;
52614;SDS011;38508;53.158;6.614;2023-04-03T08:21:00;5.30;;;0.93;;
52614;SDS011;38508;53.158;6.614;2023-04-03T08:23:25;4.78;;;1.35;;
52614;SDS011;38508;53.158;6.614;2023-04-03T08:25:51;7.28;;;1.83;;
52614;SDS011;38508;53.158;6.614;2023-04-03T08:28:17;5.47;;;1.60;;
52614;SDS011;38508;53.158;6.614;2023-04-03T08:30:42;6.18;;;1.75;;
52614;SDS011;38508;53.158;6.614;2023-04-03T08:33:09;6.97;;;1.20;;
52614;SDS011;38508;53.158;6.614;2023-04-03T08:35:39;4.65;;;1.05;;
52614;SDS011;38508;53.158;6.614;2023-04-03T08:38:06;4.20;;;1.38;;
52614;SDS011;38508;53.158;6.614;2023-04-03T08:40:33;3.70;;;1.30;;
52614;SDS011;38508;53.158;6.614;2023-04-03T08:43:03;6.95;;;1.73;;
52614;SDS011;38508;53.158;6.614;2023-04-03T08:45:48;5.00;;;1.38;;
52614;SDS011;38508;53.158;6.614;2023-04-03T08:48:24;4.30;;;1.20;;
52614;SDS011;38508;53.158;6.614;2023-04-03T08:51:08;5.35;;;1.30;;
52614;SDS011;38508;53.158;6.614;2023-04-03T08:53:42;6.68;;;1.73;;
52614;SDS011;38508;53.158;6.614;2023-04-03T08:56:19;5.97;;;1.50;;
52614;SDS011;38508;53.158;6.614;2023-04-03T08:58:47;10.73;;;1.77;;
52614;SDS011;38508;53.158;6.614;2023-04-03T09:03:50;9.65;;;1.50;;
52614;SDS011;38508;53.158;6.614;2023-04-03T09:06:18;6.10;;;1.35;;
52614;SDS011;38508;53.158;6.614;2023-04-03T09:14:26;4.55;;;1.20;;
52614;SDS011;38508;53.158;6.614;2023-04-03T09:17:14;5.65;;;1.45;;
52614;SDS011;38508;53.158;6.614;2023-04-03T09:22:25;4.07;;;0.77;;
52614;SDS011;38508;53.158;6.614;2023-04-03T09:24:57;4.15;;;1.20;;
52614;SDS011;38508;53.158;6.614;2023-04-03T09:27:27;5.43;;;1.05;;
52614;SDS011;38508;53.158;6.614;2023-04-03T09:29:53;6.00;;;0.95;;
52614;SDS011;38508;53.158;6.614;2023-04-03T09:32:25;2.97;;;0.90;;
52614;SDS011;38508;53.158;6.614;2023-04-03T09:34:56;5.53;;;1.02;;
52614;SDS011;38508;53.158;6.614;2023-04-03T09:37:35;5.68;;;1.15;;
52614;SDS011;38508;53.158;6.614;2023-04-03T09:40:04;5.38;;;1.35;;
52614;SDS011;38508;53.158;6.614;2023-04-03T09:42:31;9.80;;;1.02;;
52614;SDS011;38508;53.158;6.614;2023-04-03T09:45:01;2.22;;;1.00;;
52614;SDS011;38508;53.158;6.614;2023-04-03T09:47:33;2.90;;;0.68;;
52614;SDS011;38508;53.158;6.614;2023-04-03T09:52:45;6.43;;;1.08;;
52614;SDS011;38508;53.158;6.614;2023-04-03T09:55:17;4.28;;;0.90;;
52614;SDS011;38508;53.158;6.614;2023-04-03T09:58:01;4.28;;;0.98;;
52614;SDS011;38508;53.158;6.614;2023-04-03T10:00:35;4.55;;;1.30;;
52614;SDS011;38508;53.158;6.614;2023-04-03T10:03:02;3.75;;;0.90;;
52614;SDS011;38508;53.158;6.614;2023-04-03T10:10:41;54.15;;;2.47;;
52614;SDS011;38508;53.158;6.614;2023-04-03T10:13:12;3.40;;;0.70;;
52614;SDS011;38508;53.158;6.614;2023-04-03T10:15:42;4.03;;;1.40;;
52614;SDS011;38508;53.158;6.614;2023-04-03T10:18:29;6.47;;;1.02;;
52614;SDS011;38508;53.158;6.614;2023-04-03T10:21:20;3.40;;;0.80;;
52614;SDS011;38508;53.158;6.614;2023-04-03T10:24:09;5.35;;;0.50;;
52614;SDS011;38508;53.158;6.614;2023-04-03T10:29:27;2.53;;;0.63;;
52614;SDS011;38508;53.158;6.614;2023-04-03T10:35:08;1.73;;;0.45;;
52614;SDS011;38508;53.158;6.614;2023-04-03T10:43:02;2.28;;;0.47;;
52614;SDS011;38508;53.158;6.614;2023-04-03T10:45:31;1.35;;;0.38;;
52614;SDS011;38508;53.158;6.614;2023-04-03T10:48:28;3.17;;;0.85;;
52614;SDS011;38508;53.158;6.614;2023-04-03T10:51:23;1.55;;;0.40;;
52614;SDS011;38508;53.158;6.614;2023-04-03T10:56:44;2.00;;;0.40;;
52614;SDS011;38508;53.158;6.614;2023-04-03T10:59:29;53.90;;;2.63;;
52614;SDS011;38508;53.158;6.614;2023-04-03T11:02:12;2.90;;;0.63;;
52614;SDS011;38508;53.158;6.614;2023-04-03T11:04:52;1.95;;;0.45;;
52614;SDS011;38508;53.158;6.614;2023-04-03T11:07:23;1.95;;;0.88;;
52614;SDS011;38508;53.158;6.614;2023-04-03T11:10:32;3.17;;;0.60;;
52614;SDS011;38508;53.158;6.614;2023-04-03T11:13:04;3.05;;;0.47;;
52614;SDS011;38508;53.158;6.614;2023-04-03T11:15:38;3.83;;;0.68;;
52614;SDS011;38508;53.158;6.614;2023-04-03T11:18:06;3.63;;;0.60;;
52614;SDS011;38508;53.158;6.614;2023-04-03T11:21:02;1.98;;;0.50;;
52614;SDS011;38508;53.158;6.614;2023-04-03T11:23:46;1.65;;;0.70;;
52614;SDS011;38508;53.158;6.614;2023-04-03T11:26:13;1.98;;;0.55;;
52614;SDS011;38508;53.158;6.614;2023-04-03T11:28:42;2.80;;;0.90;;
52614;SDS011;38508;53.158;6.614;2023-04-03T11:31:26;6.38;;;0.75;;
52614;SDS011;38508;53.158;6.614;2023-04-03T11:34:05;2.05;;;0.60;;
52614;SDS011;38508;53.158;6.614;2023-04-03T11:37:06;1.60;;;0.43;;
52614;SDS011;38508;53.158;6.614;2023-04-03T11:39:47;1.80;;;0.55;;
52614;SDS011;38508;53.158;6.614;2023-04-03T11:50:43;3.42;;;0.50;;
52614;SDS011;38508;53.158;6.614;2023-04-03T11:58:21;2.78;;;0.65;;
52614;SDS011;38508;53.158;6.614;2023-04-03T12:05:51;2.15;;;0.85;;
52614;SDS011;38508;53.158;6.614;2023-04-03T12:13:37;2.78;;;0.60;;
52614;SDS011;38508;53.158;6.614;2023-04-03T12:21:24;2.38;;;0.47;;
52614;SDS011;38508;53.158;6.614;2023-04-03T12:24:29;3.25;;;0.70;;
52614;SDS011;38508;53.158;6.614;2023-04-03T12:31:56;2.97;;;1.08;;
52614;SDS011;38508;53.158;6.614;2023-04-03T12:35:00;1.63;;;0.30;;
52614;SDS011;38508;53.158;6.614;2023-04-03T12:42:52;2.25;;;0.60;;
52614;SDS011;38508;53.158;6.614;2023-04-03T12:48:17;3.15;;;1.00;;
52614;SDS011;38508;53.158;6.614;2023-04-03T12:50:47;1.60;;;0.50;;
52614;SDS011;38508;53.158;6.614;2023-04-03T12:55:46;2.17;;;0.57;;
52614;SDS011;38508;53.158;6.614;2023-04-03T12:58:16;4.70;;;0.65;;
52614;SDS011;38508;53.158;6.614;2023-04-03T13:03:55;2.17;;;0.60;;
52614;SDS011;38508;53.158;6.614;2023-04-03T13:06:27;3.40;;;1.02;;
52614;SDS011;38508;53.158;6.614;2023-04-03T13:08:58;3.30;;;0.90;;
52614;SDS011;38508;53.158;6.614;2023-04-03T13:11:26;2.75;;;0.70;;
52614;SDS011;38508;53.158;6.614;2023-04-03T13:14:00;3.85;;;0.70;;
52614;SDS011;38508;53.158;6.614;2023-04-03T13:16:31;3.60;;;0.80;;
52614;SDS011;38508;53.158;6.614;2023-04-03T13:18:58;2.28;;;0.60;;
52614;SDS011;38508;53.158;6.614;2023-04-03T13:21:25;4.63;;;0.82;;
52614;SDS011;38508;53.158;6.614;2023-04-03T13:23:57;3.22;;;1.05;;
52614;SDS011;38508;53.158;6.614;2023-04-03T13:26:26;4.00;;;0.80;;
52614;SDS011;38508;53.158;6.614;2023-04-03T13:28:54;2.60;;;0.70;;
52614;SDS011;38508;53.158;6.614;2023-04-03T13:31:31;3.42;;;0.68;;
52614;SDS011;38508;53.158;6.614;2023-04-03T13:36:39;2.38;;;0.63;;
52614;SDS011;38508;53.158;6.614;2023-04-03T13:41:44;2.53;;;0.60;;
52614;SDS011;38508;53.158;6.614;2023-04-03T13:44:16;1.55;;;0.50;;
52614;SDS011;38508;53.158;6.614;2023-04-03T13:46:57;3.95;;;0.57;;
52614;SDS011;38508;53.158;6.614;2023-04-03T13:52:00;2.58;;;0.68;;
52614;SDS011;38508;53.158;6.614;2023-04-03T13:55:00;3.78;;;0.60;;
52614;SDS011;38508;53.158;6.614;2023-04-03T13:57:28;1.25;;;0.35;;
52614;SDS011;38508;53.158;6.614;2023-04-03T13:59:54;3.25;;;0.70;;
52614;SDS011;38508;53.158;6.614;2023-04-03T14:04:50;1.10;;;0.43;;
52614;SDS011;38508;53.158;6.614;2023-04-03T14:07:21;4.05;;;0.88;;
52614;SDS011;38508;53.158;6.614;2023-04-03T14:09:47;3.25;;;0.65;;
52614;SDS011;38508;53.158;6.614;2023-04-03T14:12:18;3.20;;;0.68;;
52614;SDS011;38508;53.158;6.614;2023-04-03T14:14:45;2.15;;;0.85;;
52614;SDS011;38508;53.158;6.614;2023-04-03T14:17:18;2.97;;;0.80;;
52614;SDS011;38508;53.158;6.614;2023-04-03T14:19:47;5.63;;;0.82;;
52614;SDS011;38508;53.158;6.614;2023-04-03T14:22:23;1.35;;;0.50;;
52614;SDS011;38508;53.158;6.614;2023-04-03T14:24:51;3.15;;;0.70;;
52614;SDS011;38508;53.158;6.614;2023-04-03T14:27:19;1.88;;;0.50;;
52614;SDS011;38508;53.158;6.614;2023-04-03T14:29:47;1.98;;;0.90;;
52614;SDS011;38508;53.158;6.614;2023-04-03T14:32:15;2.65;;;0.60;;
52614;SDS011;38508;53.158;6.614;2023-04-03T14:34:41;2.78;;;1.00;;
52614;SDS011;38508;53.158;6.614;2023-04-03T14:37:15;6.80;;;0.90;;
52614;SDS011;38508;53.158;6.614;2023-04-03T14:39:44;1.67;;;0.55;;
52614;SDS011;38508;53.158;6.614;2023-04-03T14:42:14;3.65;;;0.90;;
52614;SDS011;38508;53.158;6.614;2023-04-03T14:44:42;2.88;;;0.70;;
52614;SDS011;38508;53.158;6.614;2023-04-03T14:47:11;3.33;;;0.75;;
52614;SDS011;38508;53.158;6.614;2023-04-03T14:49:39;1.60;;;0.70;;
52614;SDS011;38508;53.158;6.614;2023-04-03T14:52:06;3.10;;;0.60;;
52614;SDS011;38508;53.158;6.614;2023-04-03T14:54:44;3.35;;;0.80;;
52614;SDS011;38508;53.158;6.614;2023-04-03T14:57:09;1.70;;;0.50;;
52614;SDS011;38508;53.158;6.614;2023-04-03T14:59:39;2.45;;;0.70;;
52614;SDS011;38508;53.158;6.614;2023-04-03T15:02:11;4.47;;;0.80;;
52614;SDS011;38508;53.158;6.614;2023-04-03T15:04:52;4.85;;;0.65;;
52614;SDS011;38508;53.158;6.614;2023-04-03T15:07:19;1.55;;;0.47;;
52614;SDS011;38508;53.158;6.614;2023-04-03T15:09:45;3.15;;;0.50;;
52614;SDS011;38508;53.158;6.614;2023-04-03T15:12:11;2.30;;;0.50;;
52614;SDS011;38508;53.158;6.614;2023-04-03T15:14:37;4.63;;;1.13;;
52614;SDS011;38508;53.158;6.614;2023-04-03T15:17:06;2.22;;;0.63;;
52614;SDS011;38508;53.158;6.614;2023-04-03T15:19:39;2.50;;;0.55;;
52614;SDS011;38508;53.158;6.614;2023-04-03T15:22:05;4.10;;;1.05;;
52614;SDS011;38508;53.158;6.614;2023-04-03T15:24:31;2.83;;;0.70;;
52614;SDS011;38508;53.158;6.614;2023-04-03T15:26:57;2.35;;;0.90;;
52614;SDS011;38508;53.158;6.614;2023-04-03T15:29:24;3.33;;;1.00;;
52614;SDS011;38508;53.158;6.614;2023-04-03T15:31:50;2.42;;;0.75;;
52614;SDS011;38508;53.158;6.614;2023-04-03T15:34:18;2.00;;;0.60;;
52614;SDS011;38508;53.158;6.614;2023-04-03T15:36:46;2.08;;;0.70;;
52614;SDS011;38508;53.158;6.614;2023-04-03T15:39:12;4.20;;;1.00;;
52614;SDS011;38508;53.158;6.614;2023-04-03T15:41:42;2.33;;;0.70;;
52614;SDS011;38508;53.158;6.614;2023-04-03T15:44:09;2.05;;;0.63;;
52614;SDS011;38508;53.158;6.614;2023-04-03T15:46:34;2.10;;;0.70;;
52614;SDS011;38508;53.158;6.614;2023-04-03T15:49:00;2.13;;;0.63;;
52614;SDS011;38508;53.158;6.614;2023-04-03T15:51:26;1.35;;;0.73;;
52614;SDS011;38508;53.158;6.614;2023-04-03T15:53:52;2.85;;;0.80;;
52614;SDS011;38508;53.158;6.614;2023-04-03T15:56:17;1.92;;;0.70;;
52614;SDS011;38508;53.158;6.614;2023-04-03T15:58:43;4.10;;;0.95;;
52614;SDS011;38508;53.158;6.614;2023-04-03T16:01:09;2.22;;;0.65;;
52614;SDS011;38508;53.158;6.614;2023-04-03T16:03:36;1.60;;;0.55;;
52614;SDS011;38508;53.158;6.614;2023-04-03T16:06:03;2.38;;;0.60;;
52614;SDS011;38508;53.158;6.614;2023-04-03T16:08:29;1.67;;;0.30;;
52614;SDS011;38508;53.158;6.614;2023-04-03T16:10:55;1.98;;;0.68;;
52614;SDS011;38508;53.158;6.614;2023-04-03T16:13:21;0.85;;;0.25;;
52614;SDS011;38508;53.158;6.614;2023-04-03T16:15:47;3.63;;;0.38;;
52614;SDS011;38508;53.158;6.614;2023-04-03T16:18:13;1.52;;;0.40;;
52614;SDS011;38508;53.158;6.614;2023-04-03T16:20:39;2.35;;;0.77;;
52614;SDS011;38508;53.158;6.614;2023-04-03T16:23:05;3.22;;;0.50;;
52614;SDS011;38508;53.158;6.614;2023-04-03T16:25:31;1.55;;;0.30;;
52614;SDS011;38508;53.158;6.614;2023-04-03T16:27:57;2.88;;;0.40;;
52614;SDS011;38508;53.158;6.614;2023-04-03T16:30:23;2.22;;;0.45;;
52614;SDS011;38508;53.158;6.614;2023-04-03T16:32:48;2.97;;;0.50;;
52614;SDS011;38508;53.158;6.614;2023-04-03T16:35:14;2.67;;;0.70;;
52614;SDS011;38508;53.158;6.614;2023-04-03T16:37:40;1.48;;;0.50;;
52614;SDS011;38508;53.158;6.614;2023-04-03T16:40:06;4.07;;;0.80;;
52614;SDS011;38508;53.158;6.614;2023-04-03T16:42:33;2.78;;;0.55;;